Time;durP1;ratioP1;P1;durP2;ratioP2;P2;SDS_P1;SDS_P2;PMS_P1;PMS_P2;Temp;Humidity;BMP_temperature;BMP_pressure;BME280_temperature;BME280_humidity;BME280_pressure;Samples;Min_cycle;Max_cycle;Signal;HPM_P1;HPM_P2
2024/04/15 00:02:10;;;;;;;9.27;3.00;;;11.00;99.90;;;;;;5539166;25;20760;-66
2024/04/15 00:04:58;;;;;;;6.67;2.93;;;11.10;99.90;;;;;;5544631;25;20336;-65
2024/04/15 00:07:48;;;;;;;4.60;2.60;;;11.10;1.00;;;;;;5544507;25;20695;-65
2024/04/15 00:10:36;;;;;;;7.63;2.77;;;11.10;99.90;;;;;;5536170;25;20225;-65
2024/04/15 00:13:29;;;;;;;8.83;2.70;;;11.10;99.90;;;;;;5538016;25;20345;-66
2024/04/15 00:16:15;;;;;;;6.93;2.30;;;11.10;99.90;;;;;;5549383;25;20644;-66
2024/04/15 00:19:04;;;;;;;6.33;2.30;;;11.10;1.00;;;;;;5545808;25;20225;-65
2024/04/15 00:21:51;;;;;;;8.87;2.60;;;11.10;1.00;;;;;;5548279;25;20292;-66
2024/04/15 00:24:40;;;;;;;6.30;2.13;;;11.10;99.90;;;;;;5550825;25;20272;-66
2024/04/15 00:27:27;;;;;;;5.43;2.60;;;11.00;99.90;;;;;;5549328;25;20337;-65
2024/04/15 00:30:19;;;;;;;3.90;2.23;;;10.80;99.90;;;;;;5536148;25;20229;-65
2024/04/15 00:33:09;;;;;;;10.17;2.93;;;10.90;1.00;;;;;;5544278;25;20861;-66
2024/04/15 00:35:55;;;;;;;5.87;2.87;;;10.90;97.50;;;;;;5544399;25;20286;-66
2024/04/15 00:38:45;;;;;;;5.83;2.70;;;10.80;1.00;;;;;;5550101;25;20229;-66
2024/04/15 00:41:31;;;;;;;9.87;3.07;;;10.70;1.00;;;;;;5537678;25;20349;-66
2024/04/15 00:44:20;;;;;;;4.83;2.20;;;10.70;99.90;;;;;;5539162;25;20219;-65
2024/04/15 00:47:10;;;;;;;5.37;2.67;;;10.80;99.90;;;;;;5544364;25;20285;-66
2024/04/15 00:49:59;;;;;;;4.67;1.90;;;10.80;1.00;;;;;;5539085;25;20234;-66
2024/04/15 00:52:46;;;;;;;6.37;2.17;;;10.90;1.00;;;;;;5552159;25;20234;-65
2024/04/15 00:55:36;;;;;;;6.67;2.17;;;10.90;99.90;;;;;;5550702;25;20286;-66
2024/04/15 00:58:22;;;;;;;4.23;2.40;;;10.90;99.90;;;;;;5543232;25;20437;-66
2024/04/15 01:01:12;;;;;;;11.67;2.17;;;10.90;1.00;;;;;;5537544;25;20223;-65
2024/04/15 01:04:01;;;;;;;7.73;2.40;;;10.90;99.90;;;;;;5538030;25;20297;-65
2024/04/15 01:06:51;;;;;;;9.67;2.50;;;10.90;1.00;;;;;;5540040;25;20218;-64
2024/04/15 01:09:38;;;;;;;10.00;2.30;;;10.90;1.00;;;;;;5537701;25;20595;-65
2024/04/15 01:12:27;;;;;;;5.63;2.07;;;10.80;1.00;;;;;;5538278;25;20227;-65
2024/04/15 01:15:14;;;;;;;5.80;2.53;;;10.90;1.00;;;;;;5541538;25;20649;-64
2024/04/15 01:18:03;;;;;;;5.87;2.10;;;10.90;1.00;;;;;;5549447;25;20567;-65
2024/04/15 01:20:55;;;;;;;5.27;2.30;;;10.90;99.90;;;;;;5543427;25;20262;-66
2024/04/15 01:23:49;;;;;;;7.10;2.43;;;10.80;99.90;;;;;;5547432;25;20305;-65
2024/04/15 01:26:35;;;;;;;6.03;1.70;;;10.70;99.90;;;;;;5543349;25;20239;-65
2024/04/15 01:29:25;;;;;;;4.60;2.13;;;10.80;99.90;;;;;;5538634;25;20576;-65
2024/04/15 01:32:11;;;;;;;8.73;2.40;;;10.60;75.90;;;;;;5544469;25;20331;-66
2024/04/15 01:35:01;;;;;;;6.23;2.00;;;10.60;99.90;;;;;;5530328;25;20218;-65
2024/04/15 01:37:48;;;;;;;8.17;2.00;;;10.60;1.00;;;;;;5550490;25;20237;-65
2024/04/15 01:40:40;;;;;;;5.73;2.00;;;10.70;99.90;;;;;;5545490;25;20225;-65
2024/04/15 01:43:27;;;;;;;6.27;1.90;;;10.70;99.90;;;;;;5533420;25;20231;-65
2024/04/15 01:46:16;;;;;;;5.67;2.20;;;10.70;1.00;;;;;;5552629;25;20229;-65
2024/04/15 01:49:03;;;;;;;3.23;1.67;;;10.50;1.00;;;;;;5532047;25;20332;-65
2024/04/15 01:51:52;;;;;;;8.20;2.30;;;10.50;57.40;;;;;;5554293;25;20224;-65
2024/04/15 01:54:39;;;;;;;6.00;2.00;;;10.40;99.90;;;;;;5552240;25;20311;-66
2024/04/15 01:57:31;;;;;;;2.70;1.50;;;10.40;99.90;;;;;;5548065;25;20231;-66
2024/04/15 02:00:18;;;;;;;8.60;2.33;;;10.40;99.90;;;;;;5530434;25;20335;-66
2024/04/15 02:03:07;;;;;;;5.90;2.37;;;10.40;99.90;;;;;;5554907;25;20616;-66
2024/04/15 02:05:54;;;;;;;5.27;2.00;;;10.40;99.90;;;;;;5526567;25;20287;-66
2024/04/15 02:08:43;;;;;;;6.47;2.60;;;10.30;28.60;;;;;;5525641;25;20675;-66
2024/04/15 02:11:33;;;;;;;14.27;3.10;;;10.30;28.10;;;;;;5546451;25;20282;-66
2024/04/15 02:14:22;;;;;;;12.77;2.93;;;10.30;1.00;;;;;;5532306;25;20551;-66
2024/04/15 02:17:11;;;;;;;6.03;2.40;;;10.40;1.00;;;;;;5545243;25;20359;-66
2024/04/15 02:19:58;;;;;;;8.30;2.40;;;10.30;1.00;;;;;;5547406;25;20242;-66
2024/04/15 02:22:47;;;;;;;4.03;2.07;;;10.40;1.00;;;;;;5552483;25;20226;-66
2024/04/15 02:25:34;;;;;;;7.37;2.20;;;10.30;99.90;;;;;;5524394;25;20233;-66
2024/04/15 02:28:23;;;;;;;5.23;1.90;;;10.10;99.90;;;;;;5538466;25;20774;-66
2024/04/15 02:31:12;;;;;;;5.40;2.03;;;10.00;99.90;;;;;;5546846;25;20246;-66
2024/04/15 02:34:02;;;;;;;5.17;2.10;;;10.00;99.90;;;;;;5553255;25;20536;-66
2024/04/15 02:36:48;;;;;;;4.93;2.30;;;10.10;1.00;;;;;;5548742;25;20282;-66
2024/04/15 02:39:38;;;;;;;6.63;2.23;;;10.10;1.00;;;;;;5534666;25;20333;-66
2024/04/15 02:42:25;;;;;;;8.00;2.17;;;10.00;99.90;;;;;;5541900;25;20224;-66
2024/04/15 02:45:14;;;;;;;4.30;2.07;;;9.90;99.90;;;;;;5531859;25;20772;-66
2024/04/15 02:48:04;;;;;;;6.30;2.57;;;9.90;99.90;;;;;;5528141;25;20277;-66
2024/04/15 02:50:54;;;;;;;6.57;2.90;;;9.90;99.90;;;;;;5522685;25;20569;-65
2024/04/15 02:53:40;;;;;;;10.93;3.37;;;9.90;1.00;;;;;;5544874;25;20235;-66
2024/04/15 02:56:29;;;;;;;10.40;3.20;;;9.80;1.00;;;;;;5546381;25;20767;-66
2024/04/15 02:59:16;;;;;;;7.60;2.90;;;9.80;1.00;;;;;;5545980;25;20332;-66
2024/04/15 03:02:06;;;;;;;9.03;3.00;;;9.80;1.00;;;;;;5531978;25;20266;-66
2024/04/15 03:04:58;;;;;;;13.97;3.30;;;9.80;1.00;;;;;;5523773;25;20287;-66
2024/04/15 03:07:47;;;;;;;8.70;2.60;;;9.80;1.00;;;;;;5521396;25;20337;-66
2024/04/15 03:10:36;;;;;;;12.17;2.90;;;9.80;1.00;;;;;;5546759;25;20223;-66
2024/04/15 03:13:26;;;;;;;5.70;2.70;;;9.80;1.00;;;;;;5519838;25;20228;-66
2024/04/15 03:16:12;;;;;;;8.40;3.10;;;9.80;1.00;;;;;;5529770;25;20296;-66
2024/04/15 03:19:02;;;;;;;10.10;3.13;;;9.80;1.00;;;;;;5522074;25;20240;-66
2024/04/15 03:21:51;;;;;;;8.20;2.80;;;9.70;99.90;;;;;;5522574;25;20281;-66
2024/04/15 03:24:40;;;;;;;7.70;2.70;;;9.70;99.90;;;;;;5545875;25;20294;-66
2024/04/15 03:27:27;;;;;;;9.70;2.63;;;9.60;1.00;;;;;;5545660;25;20282;-67
2024/04/15 03:30:16;;;;;;;7.17;2.90;;;9.60;1.00;;;;;;5548350;25;20223;-66
2024/04/15 03:33:06;;;;;;;5.90;2.57;;;9.70;92.80;;;;;;5540850;25;20243;-66
2024/04/15 03:35:53;;;;;;;9.40;2.80;;;9.60;1.00;;;;;;5550690;25;20227;-66
2024/04/15 03:38:45;;;;;;;4.50;2.50;;;9.60;99.90;;;;;;5537395;25;20222;-66
2024/04/15 03:41:34;;;;;;;8.33;2.60;;;9.60;1.00;;;;;;5540937;25;20234;-66
2024/04/15 03:44:21;;;;;;;5.50;2.87;;;9.70;1.00;;;;;;5538671;25;20299;-66
2024/04/15 03:47:10;;;;;;;10.47;2.57;;;9.60;1.00;;;;;;5542406;25;20998;-66
2024/04/15 03:49:59;;;;;;;8.93;2.77;;;9.70;99.90;;;;;;5529429;25;20235;-66
2024/04/15 03:52:46;;;;;;;3.93;2.20;;;9.70;1.00;;;;;;5540577;25;20292;-66
2024/04/15 03:55:38;;;;;;;5.90;2.40;;;9.70;1.00;;;;;;5549018;25;20225;-66
2024/04/15 03:58:25;;;;;;;6.27;2.77;;;9.70;99.90;;;;;;5543798;25;20276;-66
2024/04/15 04:01:14;;;;;;;7.23;2.50;;;9.70;99.90;;;;;;5544512;25;20220;-66
2024/04/15 04:04:01;;;;;;;6.10;2.57;;;9.70;99.90;;;;;;5536008;25;20235;-66
2024/04/15 04:06:50;;;;;;;4.50;2.33;;;9.70;1.00;;;;;;5533061;25;20226;-68
2024/04/15 04:09:37;;;;;;;6.47;2.90;;;9.50;1.00;;;;;;5550547;25;20269;-66
2024/04/15 04:12:29;;;;;;;7.50;2.90;;;9.50;1.00;;;;;;5534156;25;20269;-66
2024/04/15 04:15:15;;;;;;;10.33;3.03;;;9.50;1.00;;;;;;5539351;25;20642;-66
2024/04/15 04:18:05;;;;;;;4.77;2.73;;;9.60;1.00;;;;;;5526788;25;20221;-66
2024/04/15 04:20:52;;;;;;;9.47;2.73;;;9.70;1.00;;;;;;5548545;25;20632;-66
2024/04/15 04:23:41;;;;;;;11.13;3.40;;;9.80;1.00;;;;;;5535484;25;20226;-66
2024/04/15 04:26:28;;;;;;;10.80;2.87;;;9.90;99.90;;;;;;5551193;25;20974;-66
2024/04/15 04:29:20;;;;;;;8.77;3.10;;;9.80;1.00;;;;;;5543463;25;20595;-66
2024/04/15 04:32:07;;;;;;;7.70;2.77;;;9.90;1.00;;;;;;5547954;25;20238;-66
2024/04/15 04:34:56;;;;;;;6.33;2.73;;;9.90;99.90;;;;;;5531934;25;20566;-66
2024/04/15 04:37:43;;;;;;;9.37;3.37;;;9.80;99.90;;;;;;5543764;25;20305;-66
2024/04/15 04:40:32;;;;;;;7.10;3.43;;;9.80;99.90;;;;;;5519608;25;20586;-66
2024/04/15 04:43:19;;;;;;;8.47;3.03;;;9.80;99.90;;;;;;5524993;25;20269;-65
2024/04/15 04:46:14;;;;;;;12.90;3.33;;;9.80;1.00;;;;;;5529823;25;20555;-66
2024/04/15 04:49:04;;;;;;;9.30;3.80;;;9.90;1.00;;;;;;5521229;25;20234;-65
2024/04/15 04:51:51;;;;;;;6.00;3.60;;;9.90;1.00;;;;;;5545004;25;20274;-66
2024/04/15 04:54:41;;;;;;;10.00;3.77;;;10.10;99.90;;;;;;5542051;25;20724;-66
2024/04/15 04:57:27;;;;;;;9.63;3.97;;;10.10;95.40;;;;;;5546416;25;20240;-66
2024/04/15 05:00:17;;;;;;;15.03;4.77;;;10.20;99.90;;;;;;5543331;25;20221;-66
2024/04/15 05:03:09;;;;;;;11.90;4.63;;;10.20;99.90;;;;;;5532353;25;20230;-66
2024/04/15 05:05:56;;;;;;;10.73;4.50;;;10.00;1.00;;;;;;5543848;25;20811;-66
2024/04/15 05:08:46;;;;;;;12.23;4.70;;;9.90;1.00;;;;;;5535623;25;20222;-65
2024/04/15 05:11:32;;;;;;;12.03;4.60;;;9.80;99.90;;;;;;5535328;25;20763;-65
2024/04/15 05:14:22;;;;;;;8.73;4.67;;;9.80;1.00;;;;;;5541410;25;20222;-65
2024/04/15 05:17:10;;;;;;;13.27;4.47;;;9.90;99.90;;;;;;5533563;25;20336;-66
2024/04/15 05:20:02;;;;;;;10.90;4.40;;;10.00;1.00;;;;;;5526980;25;20297;-65
2024/04/15 05:22:49;;;;;;;8.83;4.20;;;10.00;99.90;;;;;;5544208;25;20268;-65
2024/04/15 05:25:40;;;;;;;12.57;4.63;;;9.80;1.00;;;;;;5532441;25;20223;-65
2024/04/15 05:28:26;;;;;;;9.60;3.97;;;9.80;99.90;;;;;;5554484;25;20616;-65
2024/04/15 05:31:16;;;;;;;10.33;4.73;;;9.80;1.00;;;;;;5547114;25;20223;-65
2024/04/15 05:34:03;;;;;;;10.50;3.80;;;9.90;1.00;;;;;;5540755;25;20761;-65
2024/04/15 05:36:55;;;;;;;10.43;4.10;;;10.00;99.90;;;;;;5544184;25;20277;-65
2024/04/15 05:39:41;;;;;;;10.83;4.33;;;10.00;30.00;;;;;;5541997;25;20336;-65
2024/04/15 05:42:31;;;;;;;10.20;4.40;;;9.90;41.10;;;;;;5556046;25;20224;-65
2024/04/15 05:45:17;;;;;;;9.93;4.27;;;9.90;99.90;;;;;;5550981;25;20705;-65
2024/04/15 05:48:08;;;;;;;9.33;4.30;;;9.80;1.00;;;;;;5533299;25;20227;-65
2024/04/15 05:50:54;;;;;;;10.67;4.33;;;9.90;1.00;;;;;;5531419;25;20478;-65
2024/04/15 05:53:46;;;;;;;8.40;4.20;;;9.90;1.00;;;;;;5533191;25;20590;-65
2024/04/15 05:56:33;;;;;;;10.97;4.40;;;10.00;99.90;;;;;;5543830;25;20590;-66
2024/04/15 05:59:23;;;;;;;16.60;5.90;;;10.00;99.90;;;;;;5544690;25;20223;-66
2024/04/15 06:02:09;;;;;;;14.70;4.87;;;10.00;1.00;;;;;;5536093;25;20282;-66
2024/04/15 06:04:59;;;;;;;8.07;4.50;;;10.10;1.00;;;;;;5513774;25;20245;-65
2024/04/15 06:07:45;;;;;;;10.67;4.97;;;10.10;99.90;;;;;;5531936;25;20235;-65
2024/04/15 06:10:37;;;;;;;14.63;5.30;;;10.20;99.90;;;;;;5533458;25;20219;-65
2024/04/15 06:13:24;;;;;;;14.50;5.83;;;10.20;99.90;;;;;;5547191;25;20242;-66
2024/04/15 06:16:13;;;;;;;10.57;5.30;;;10.20;99.90;;;;;;5539479;25;20228;-66
2024/04/15 06:19:00;;;;;;;9.07;5.27;;;10.30;99.90;;;;;;5508097;25;20420;-65
2024/04/15 06:21:50;;;;;;;13.27;5.40;;;10.30;99.90;;;;;;5540690;25;20270;-65
2024/04/15 06:24:36;;;;;;;10.63;3.30;;;10.30;99.90;;;;;;5549505;25;20237;-65
2024/04/15 06:27:28;;;;;;;9.53;4.70;;;10.20;99.90;;;;;;5537497;25;20226;-65
2024/04/15 06:30:15;;;;;;;6.60;4.23;;;10.00;1.00;;;;;;5549580;25;20230;-65
2024/04/15 06:33:04;;;;;;;14.90;7.00;;;9.90;99.90;;;;;;5548544;25;20226;-65
2024/04/15 06:35:51;;;;;;;13.03;7.00;;;9.90;1.00;;;;;;5550797;25;20227;-66
2024/04/15 06:38:40;;;;;;;14.83;6.77;;;9.90;4.30;;;;;;5551957;25;20778;-66
2024/04/15 06:41:27;;;;;;;15.83;6.87;;;9.90;1.00;;;;;;5544747;25;20334;-66
2024/04/15 06:44:19;;;;;;;13.13;7.00;;;9.90;1.00;;;;;;5534412;25;20228;-65
2024/04/15 06:47:09;;;;;;;10.47;6.17;;;9.90;99.90;;;;;;5536723;25;20234;-65
2024/04/15 06:49:55;;;;;;;11.20;6.60;;;10.00;1.00;;;;;;5536122;25;20242;-66
2024/04/15 06:52:45;;;;;;;11.00;5.87;;;10.00;1.00;;;;;;5551351;25;20334;-65
2024/04/15 06:55:34;;;;;;;10.80;6.03;;;10.00;1.00;;;;;;5538663;25;21128;-65
2024/04/15 06:58:21;;;;;;;10.13;5.97;;;10.00;1.00;;;;;;5540550;25;20645;-65
2024/04/15 07:01:13;;;;;;;11.97;5.57;;;10.00;1.00;;;;;;5521150;25;20245;-65
2024/04/15 07:03:59;;;;;;;13.20;5.93;;;10.10;1.00;;;;;;5543132;25;20238;-65
2024/04/15 07:06:49;;;;;;;14.17;5.40;;;10.10;1.00;;;;;;5548185;25;20294;-66
2024/04/15 07:09:35;;;;;;;10.90;5.43;;;10.20;1.00;;;;;;5537495;25;20269;-66
2024/04/15 07:12:25;;;;;;;10.47;5.03;;;10.30;1.00;;;;;;5544653;25;20294;-66
2024/04/15 07:15:11;;;;;;;13.47;5.27;;;10.50;1.00;;;;;;5547274;25;20227;-66
2024/04/15 07:18:03;;;;;;;18.67;6.90;;;10.50;99.90;;;;;;5524572;25;20281;-65
2024/04/15 07:20:50;;;;;;;10.73;5.50;;;10.50;99.90;;;;;;5527649;25;20414;-66
2024/04/15 07:23:39;;;;;;;15.20;5.80;;;10.60;99.90;;;;;;5539182;25;20227;-65
2024/04/15 07:26:26;;;;;;;14.43;5.80;;;10.60;1.00;;;;;;5550950;25;20733;-66
2024/04/15 07:29:15;;;;;;;19.27;6.13;;;10.60;1.00;;;;;;5535208;25;20236;-65
2024/04/15 07:32:03;;;;;;;63.63;17.23;;;10.50;1.00;;;;;;5549448;25;20235;-65
2024/04/15 07:34:55;;;;;;;15.70;7.33;;;10.40;49.40;;;;;;5554103;25;20275;-65
2024/04/15 07:37:44;;;;;;;30.80;9.53;;;10.40;1.00;;;;;;5555247;25;20235;-65
2024/04/15 07:40:34;;;;;;;18.93;6.97;;;10.50;1.00;;;;;;5533531;25;20337;-65
2024/04/15 07:43:20;;;;;;;11.00;4.23;;;10.50;99.90;;;;;;5557920;25;20281;-65
2024/04/15 07:46:10;;;;;;;25.53;12.37;;;10.50;1.00;;;;;;5529665;25;20222;-67
2024/04/15 07:48:59;;;;;;;18.23;8.63;;;10.50;20.80;;;;;;5528802;25;20278;-65
2024/04/15 07:51:48;;;;;;;19.60;7.57;;;10.50;99.90;;;;;;5524274;25;20236;-65
2024/04/15 07:54:38;;;;;;;14.83;4.53;;;10.50;1.00;;;;;;5544537;25;20224;-65
2024/04/15 07:57:25;;;;;;;29.73;11.20;;;10.70;1.00;;;;;;5543109;25;20233;-65
2024/04/15 08:00:14;;;;;;;11.53;5.30;;;10.50;1.00;;;;;;5558283;25;20272;-66
2024/04/15 08:03:03;;;;;;;10.10;4.10;;;10.40;1.00;;;;;;5536657;25;20241;-65
2024/04/15 08:05:52;;;;;;;14.50;7.43;;;10.10;1.00;;;;;;5528069;25;20233;-65
2024/04/15 08:08:41;;;;;;;12.27;6.03;;;10.20;99.90;;;;;;5537685;25;20307;-66
2024/04/15 08:11:31;;;;;;;18.37;7.53;;;10.40;99.90;;;;;;5535791;25;21103;-65
2024/04/15 08:14:19;;;;;;;16.27;7.43;;;10.40;1.00;;;;;;5550192;25;20274;-66
2024/04/15 08:17:08;;;;;;;9.57;5.77;;;10.40;99.90;;;;;;5535223;25;20224;-64
2024/04/15 08:19:55;;;;;;;25.70;11.40;;;10.40;1.00;;;;;;5535530;25;20273;-65
2024/04/15 08:22:44;;;;;;;23.27;9.47;;;10.40;1.00;;;;;;5564842;25;20223;-65
2024/04/15 08:25:33;;;;;;;25.37;10.57;;;10.40;99.90;;;;;;5537881;25;20238;-67
2024/04/15 08:28:23;;;;;;;11.07;7.47;;;10.60;99.90;;;;;;5525614;25;20225;-65
2024/04/15 08:31:10;;;;;;;17.73;8.47;;;10.60;1.00;;;;;;5529872;25;20332;-65
2024/04/15 08:33:59;;;;;;;12.23;6.63;;;10.60;1.00;;;;;;5514840;25;20277;-67
2024/04/15 08:36:46;;;;;;;11.13;6.23;;;10.70;1.00;;;;;;5533626;25;20299;-65
2024/04/15 08:39:37;;;;;;;13.87;6.43;;;10.80;1.00;;;;;;5530455;25;20227;-65
2024/04/15 08:42:34;;;;;;;20.80;9.37;;;10.90;1.00;;;;;;5538919;25;20903;-65
2024/04/15 08:45:24;;;;;;;21.10;9.50;;;10.80;1.00;;;;;;5535331;25;20706;-65
2024/04/15 08:48:10;;;;;;;17.50;6.80;;;10.60;99.90;;;;;;5544221;25;20294;-65
2024/04/15 08:51:02;;;;;;;8.73;3.67;;;10.50;1.00;;;;;;5536941;25;20267;-65
2024/04/15 08:53:49;;;;;;;7.90;4.10;;;10.40;99.90;;;;;;5548389;25;20313;-65
2024/04/15 08:56:39;;;;;;;14.83;5.63;;;10.30;99.90;;;;;;5536426;25;20266;-65
2024/04/15 08:59:29;;;;;;;15.87;6.37;;;10.30;1.00;;;;;;5547363;25;20224;-65
2024/04/15 09:02:18;;;;;;;15.23;5.40;;;10.00;1.00;;;;;;5534507;25;20245;-65
2024/04/15 09:05:05;;;;;;;29.43;10.60;;;10.00;1.00;;;;;;5528255;25;20644;-66
2024/04/15 09:07:54;;;;;;;11.13;4.57;;;10.10;99.90;;;;;;5542334;25;20604;-65
2024/04/15 09:10:41;;;;;;;12.67;5.07;;;9.90;66.20;;;;;;5547243;25;20239;-65
2024/04/15 09:13:31;;;;;;;21.77;7.97;;;10.00;99.90;;;;;;5544568;25;20699;-65
2024/04/15 09:16:20;;;;;;;61.60;14.57;;;9.80;1.00;;;;;;5550604;25;20302;-65
2024/04/15 09:19:10;;;;;;;56.70;17.73;;;10.00;75.30;;;;;;5546547;25;20624;-65
2024/04/15 09:21:59;;;;;;;28.43;8.47;;;10.10;99.90;;;;;;5556867;25;20238;-65
2024/04/15 09:24:50;;;;;;;8.37;3.47;;;10.10;1.00;;;;;;5541910;25;20317;-65
2024/04/15 09:27:36;;;;;;;5.60;3.00;;;9.90;1.00;;;;;;5532728;25;20330;-65
2024/04/15 09:30:26;;;;;;;11.13;3.10;;;9.70;1.00;;;;;;5541875;25;20229;-66
2024/04/15 09:33:17;;;;;;;7.83;3.77;;;9.70;99.90;;;;;;5524078;25;20236;-65
2024/04/15 09:36:07;;;;;;;10.70;4.67;;;9.70;99.90;;;;;;5572143;25;20235;-65
2024/04/15 09:38:54;;;;;;;18.73;5.27;;;9.70;1.00;;;;;;5541471;25;20308;-65
2024/04/15 09:41:43;;;;;;;13.73;4.37;;;9.70;1.00;;;;;;5569088;25;20227;-64
2024/04/15 09:44:30;;;;;;;17.50;4.40;;;9.60;1.00;;;;;;5544971;25;20239;-65
2024/04/15 09:47:19;;;;;;;11.23;4.33;;;9.50;99.90;;;;;;5524633;25;20820;-65
2024/04/15 09:50:09;;;;;;;11.57;3.93;;;9.60;99.90;;;;;;5536025;25;20573;-65
2024/04/15 09:53:00;;;;;;;168.00;28.70;;;9.50;99.90;;;;;;5553054;25;20230;-65
2024/04/15 09:55:49;;;;;;;294.37;47.80;;;9.70;1.00;;;;;;5563928;25;20276;-65
2024/04/15 09:58:38;;;;;;;90.33;20.00;;;9.90;99.90;;;;;;5560290;25;20258;-65
2024/04/15 10:01:29;;;;;;;33.30;8.90;;;10.00;99.90;;;;;;5564113;25;20230;-65
2024/04/15 10:04:22;;;;;;;13.63;4.60;;;10.00;99.90;;;;;;5555983;25;20293;-65
2024/04/15 10:07:11;;;;;;;11.20;4.53;;;10.10;67.20;;;;;;5522479;25;20263;-66
2024/04/15 10:10:00;;;;;;;12.23;4.13;;;10.20;99.90;;;;;;5554639;25;20227;-65
2024/04/15 10:12:48;;;;;;;14.97;3.40;;;10.30;1.00;;;;;;5557639;25;20276;-66
2024/04/15 10:15:38;;;;;;;8.60;2.90;;;10.20;99.90;;;;;;5548821;25;20223;-65
2024/04/15 10:18:28;;;;;;;12.00;3.00;;;10.40;99.90;;;;;;5560534;25;20279;-65
2024/04/15 10:21:17;;;;;;;7.43;3.90;;;10.40;1.00;;;;;;5567207;25;20281;-65
2024/04/15 10:24:07;;;;;;;7.83;2.83;;;10.30;1.00;;;;;;5549284;25;20235;-65
2024/04/15 10:26:56;;;;;;;7.00;3.20;;;10.20;99.90;;;;;;5553647;25;20221;-65
2024/04/15 10:29:43;;;;;;;12.83;3.37;;;10.10;1.00;;;;;;5561388;25;20239;-65
2024/04/15 10:32:33;;;;;;;8.90;2.80;;;10.20;99.90;;;;;;5561986;25;20281;-65
2024/04/15 10:35:21;;;;;;;15.70;6.07;;;10.20;99.90;;;;;;5532186;25;20227;-65
2024/04/15 10:38:11;;;;;;;7.50;3.40;;;10.20;1.00;;;;;;5559084;25;20276;-65
2024/04/15 10:41:05;;;;;;;10.83;4.97;;;10.30;1.00;;;;;;5540535;25;20669;-65
2024/04/15 10:43:54;;;;;;;11.80;4.53;;;10.50;1.00;;;;;;5521828;25;20540;-65
2024/04/15 10:46:42;;;;;;;8.43;3.67;;;10.70;99.90;;;;;;5547479;25;20226;-65
2024/04/15 10:49:31;;;;;;;3.60;2.03;;;10.80;1.00;;;;;;5560734;25;20226;-65
2024/04/15 10:52:20;;;;;;;11.20;2.90;;;11.10;1.00;;;;;;5543066;25;20597;-65
2024/04/15 10:55:09;;;;;;;10.77;3.07;;;11.10;1.00;;;;;;5563152;25;20342;-66
2024/04/15 10:58:01;;;;;;;19.63;6.40;;;11.50;1.00;;;;;;5568979;25;20637;-66
2024/04/15 11:00:48;;;;;;;8.23;3.40;;;11.60;1.00;;;;;;5564438;25;20340;-65
2024/04/15 11:03:37;;;;;;;7.30;2.40;;;11.60;1.00;;;;;;5528109;25;20289;-65
2024/04/15 11:06:27;;;;;;;15.33;3.10;;;11.50;1.00;;;;;;5534452;25;20283;-65
2024/04/15 11:09:13;;;;;;;10.73;3.13;;;11.40;99.90;;;;;;5527895;25;20318;-65
2024/04/15 11:12:02;;;;;;;10.47;3.27;;;11.00;1.00;;;;;;5566688;25;20801;-65
2024/04/15 11:14:58;;;;;;;9.30;3.03;;;10.90;1.00;;;;;;5524600;25;20239;-66
2024/04/15 11:17:45;;;;;;;7.30;2.57;;;10.90;1.00;;;;;;5521912;25;20751;-66
2024/04/15 11:20:35;;;;;;;9.97;4.53;;;10.90;1.00;;;;;;5523899;25;20710;-65
2024/04/15 11:23:22;;;;;;;8.87;4.77;;;11.20;1.00;;;;;;5525233;25;20295;-66
2024/04/15 11:26:11;;;;;;;8.90;2.70;;;11.40;1.00;;;;;;5525649;25;20226;-65
2024/04/15 11:28:58;;;;;;;40.97;12.97;;;11.60;99.90;;;;;;5521042;25;20709;-65
2024/04/15 11:31:50;;;;;;;23.07;6.40;;;11.70;99.90;;;;;;5539268;25;20238;-66
2024/04/15 11:34:39;;;;;;;13.43;4.13;;;11.90;99.90;;;;;;5533756;25;20338;-65
2024/04/15 11:37:26;;;;;;;12.23;4.97;;;11.80;99.90;;;;;;5539457;25;20298;-66
2024/04/15 11:40:16;;;;;;;14.67;4.43;;;11.80;12.80;;;;;;5545077;25;20268;-65
2024/04/15 11:43:03;;;;;;;11.03;3.60;;;11.80;1.00;;;;;;5531436;25;20341;-66
2024/04/15 11:45:53;;;;;;;7.73;3.43;;;11.70;99.90;;;;;;5545797;25;20778;-66
2024/04/15 11:48:42;;;;;;;7.13;3.60;;;11.90;99.90;;;;;;5545307;25;20294;-66
2024/04/15 11:51:32;;;;;;;12.43;4.47;;;12.20;99.90;;;;;;5538906;25;20280;-66
2024/04/15 11:54:18;;;;;;;10.27;3.07;;;12.40;39.30;;;;;;5538852;25;20299;-66
2024/04/15 11:57:08;;;;;;;5.37;2.80;;;12.30;1.00;;;;;;5555765;25;20219;-66
2024/04/15 11:59:57;;;;;;;7.50;2.60;;;12.10;43.50;;;;;;5544265;25;20298;-66
2024/04/15 12:02:49;;;;;;;16.40;5.03;;;11.80;1.00;;;;;;5533980;25;20238;-65
2024/04/15 12:05:38;;;;;;;13.17;3.90;;;12.00;1.00;;;;;;5547279;25;20234;-66
2024/04/15 12:08:27;;;;;;;10.70;3.20;;;12.00;1.00;;;;;;5545805;25;20222;-66
2024/04/15 12:11:14;;;;;;;6.00;2.90;;;11.80;99.90;;;;;;5524480;25;20313;-66
2024/04/15 12:14:04;;;;;;;17.60;3.07;;;11.80;99.90;;;;;;5520679;25;20750;-65
2024/04/15 12:16:50;;;;;;;7.00;3.07;;;11.60;99.90;;;;;;5544898;25;20553;-65
2024/04/15 12:19:40;;;;;;;9.23;3.97;;;11.50;99.90;;;;;;5540219;25;20278;-66
2024/04/15 12:22:32;;;;;;;11.80;4.87;;;11.60;99.90;;;;;;5535298;25;20230;-65
2024/04/15 12:25:18;;;;;;;15.27;4.07;;;11.60;99.90;;;;;;5553042;25;20724;-66
2024/04/15 12:28:07;;;;;;;13.97;3.97;;;11.80;99.90;;;;;;5513566;25;20230;-66
2024/04/15 12:30:57;;;;;;;10.20;4.17;;;11.80;99.90;;;;;;5545950;25;20299;-65
2024/04/15 12:33:44;;;;;;;8.03;4.40;;;11.80;99.90;;;;;;5530855;25;20234;-65
2024/04/15 12:36:33;;;;;;;9.53;4.77;;;11.60;99.90;;;;;;5544721;25;20227;-66
2024/04/15 12:39:23;;;;;;;6.67;3.50;;;11.40;99.90;;;;;;5525252;25;20268;-65
2024/04/15 12:42:12;;;;;;;10.43;3.63;;;11.20;99.90;;;;;;5534279;25;20230;-66
2024/04/15 12:44:59;;;;;;;16.20;3.97;;;11.20;1.00;;;;;;5533931;25;20244;-66
2024/04/15 12:47:48;;;;;;;10.60;3.83;;;11.50;1.00;;;;;;5538082;25;20261;-66
2024/04/15 12:50:37;;;;;;;17.60;4.07;;;11.70;1.00;;;;;;5535939;25;20651;-67
2024/04/15 12:53:24;;;;;;;11.53;4.57;;;11.80;84.20;;;;;;5522713;25;20331;-65
2024/04/15 12:56:16;;;;;;;10.97;4.90;;;11.50;99.90;;;;;;5522880;25;20762;-66
2024/04/15 12:59:05;;;;;;;12.90;5.23;;;11.20;99.90;;;;;;5517639;25;20229;-65
2024/04/15 13:01:52;;;;;;;15.40;5.83;;;11.00;99.90;;;;;;5531623;25;20268;-66
2024/04/15 13:04:41;;;;;;;14.27;5.30;;;11.00;1.00;;;;;;5524375;25;20224;-66
2024/04/15 13:07:28;;;;;;;15.17;5.57;;;11.00;1.00;;;;;;5531401;25;20223;-66
2024/04/15 13:10:17;;;;;;;15.67;6.40;;;10.90;99.90;;;;;;5524959;25;20223;-65
2024/04/15 13:13:07;;;;;;;9.40;5.73;;;11.00;99.90;;;;;;5534286;25;20286;-66
2024/04/15 13:15:56;;;;;;;17.50;7.00;;;11.10;99.90;;;;;;5543092;25;20224;-66
2024/04/15 13:18:43;;;;;;;13.57;6.60;;;11.20;6.40;;;;;;5541417;25;20274;-65
2024/04/15 13:21:32;;;;;;;12.50;6.43;;;11.20;57.60;;;;;;5530036;25;20285;-66
2024/04/15 13:24:19;;;;;;;11.57;6.43;;;11.10;1.00;;;;;;5544612;25;20284;-65
2024/04/15 13:27:08;;;;;;;12.87;6.63;;;11.10;99.90;;;;;;5520606;25;20281;-66
2024/04/15 13:29:58;;;;;;;11.60;6.20;;;11.20;1.00;;;;;;5538847;25;20237;-66
2024/04/15 13:32:47;;;;;;;15.40;6.83;;;11.20;99.90;;;;;;5522344;25;20270;-66
2024/04/15 13:35:34;;;;;;;14.63;6.90;;;11.00;1.00;;;;;;5532374;25;20737;-66
2024/04/15 13:38:23;;;;;;;14.03;7.20;;;11.10;99.90;;;;;;5527674;25;20225;-66
2024/04/15 13:41:10;;;;;;;19.47;7.40;;;11.00;99.90;;;;;;5546620;25;20267;-65
2024/04/15 13:44:00;;;;;;;19.10;6.97;;;10.90;23.30;;;;;;5545302;25;20291;-66
2024/04/15 13:46:49;;;;;;;14.40;6.07;;;10.80;16.60;;;;;;5544065;25;20226;-65
2024/04/15 13:49:38;;;;;;;13.13;6.50;;;10.80;99.90;;;;;;5552066;25;20226;-66
2024/04/15 13:52:25;;;;;;;23.00;8.60;;;10.90;99.90;;;;;;5533683;25;20328;-66
2024/04/15 13:55:15;;;;;;;17.83;7.70;;;11.10;99.90;;;;;;5547292;25;20292;-66
2024/04/15 13:58:01;;;;;;;14.43;6.60;;;11.30;99.90;;;;;;5540575;25;20264;-66
2024/04/15 14:00:54;;;;;;;12.87;5.93;;;11.30;99.90;;;;;;5532281;25;20234;-66
2024/04/15 14:03:43;;;;;;;17.53;5.97;;;11.30;1.00;;;;;;5523124;25;20229;-66
2024/04/15 14:06:32;;;;;;;12.47;6.70;;;11.20;46.60;;;;;;5544168;25;20287;-66
2024/04/15 14:09:19;;;;;;;15.30;6.83;;;10.90;1.00;;;;;;5547024;25;20247;-66
2024/04/15 14:12:09;;;;;;;15.80;7.73;;;11.00;99.90;;;;;;5521309;25;20569;-66
2024/04/15 14:14:56;;;;;;;20.47;7.70;;;11.00;99.90;;;;;;5534674;25;20696;-66
2024/04/15 14:17:45;;;;;;;20.90;8.57;;;11.00;99.90;;;;;;5537990;25;20724;-66
2024/04/15 14:20:35;;;;;;;19.00;7.50;;;10.80;39.00;;;;;;5532135;25;20228;-66
2024/04/15 14:23:24;;;;;;;21.97;8.40;;;10.80;99.90;;;;;;5530553;25;20223;-66
2024/04/15 14:26:11;;;;;;;21.70;8.30;;;10.80;1.00;;;;;;5528309;25;20249;-66
2024/04/15 14:29:00;;;;;;;23.80;8.57;;;10.80;1.00;;;;;;5556779;25;20560;-66
2024/04/15 14:31:48;;;;;;;20.03;8.90;;;10.80;1.00;;;;;;5541663;25;20268;-66
2024/04/15 14:34:37;;;;;;;23.40;8.17;;;10.90;99.90;;;;;;5525520;25;20224;-66
2024/04/15 14:37:26;;;;;;;24.43;8.33;;;10.90;1.00;;;;;;5542048;25;20312;-66
2024/04/15 14:40:16;;;;;;;20.27;8.90;;;10.80;1.00;;;;;;5534529;25;20336;-66